Time;durP1;ratioP1;P1;durP2;ratioP2;P2;SDS_P1;SDS_P2;PMS_P1;PMS_P2;Temp;Humidity;BMP_temperature;BMP_pressure;BME280_temperature;BME280_humidity;BME280_pressure;Samples;Min_cycle;Max_cycle;Signal;HPM_P1;HPM_P2
2024/02/16 00:02:02;;;;;;;1.77;0.70;;;11.50;5.70;;;;;;5131303;27;20426;-58
2024/02/16 00:04:29;;;;;;;1.50;0.80;;;11.50;99.90;;;;;;5130994;27;20776;-58
2024/02/16 00:06:56;;;;;;;1.23;0.70;;;11.60;99.90;;;;;;5129853;27;20545;-58
2024/02/16 00:09:24;;;;;;;1.52;0.70;;;11.60;99.90;;;;;;5131471;27;20734;-58
2024/02/16 00:11:52;;;;;;;2.17;0.80;;;11.60;99.90;;;;;;5129369;27;20420;-58
2024/02/16 00:14:20;;;;;;;1.50;0.70;;;11.60;99.90;;;;;;5134686;27;20454;-58
2024/02/16 00:16:48;;;;;;;1.42;0.70;;;11.60;99.90;;;;;;5128617;27;20567;-56
2024/02/16 00:19:15;;;;;;;1.20;0.60;;;11.60;99.90;;;;;;5130875;27;20414;-58
2024/02/16 00:21:42;;;;;;;2.00;0.70;;;11.60;99.90;;;;;;5132863;27;20818;-58
2024/02/16 00:24:09;;;;;;;1.20;0.70;;;11.60;99.90;;;;;;5131205;27;20419;-58
2024/02/16 00:26:39;;;;;;;2.45;0.70;;;11.50;99.90;;;;;;5130364;27;20492;-58
2024/02/16 00:29:06;;;;;;;1.60;0.70;;;11.60;99.90;;;;;;5127731;27;20424;-58
2024/02/16 00:31:33;;;;;;;1.20;0.80;;;11.60;1.00;;;;;;5132191;27;20462;-58
2024/02/16 00:34:00;;;;;;;1.30;0.70;;;11.60;1.00;;;;;;5130324;27;20447;-57
2024/02/16 00:36:30;;;;;;;1.48;0.80;;;11.70;1.00;;;;;;5130160;27;20929;-58
2024/02/16 00:39:03;;;;;;;1.40;0.70;;;11.60;1.00;;;;;;5130164;27;20420;-58
2024/02/16 00:41:33;;;;;;;1.80;0.70;;;11.60;99.90;;;;;;5133301;27;20473;-58
2024/02/16 00:44:01;;;;;;;1.20;0.80;;;11.60;99.90;;;;;;5126924;27;20431;-59
2024/02/16 00:46:28;;;;;;;2.25;0.80;;;11.60;99.90;;;;;;5135694;27;20757;-58
2024/02/16 00:48:56;;;;;;;2.00;0.88;;;11.60;99.90;;;;;;5128718;28;20878;-58
2024/02/16 00:51:25;;;;;;;1.10;0.70;;;11.60;9.20;;;;;;5132635;28;20418;-58
2024/02/16 00:53:52;;;;;;;1.40;0.70;;;11.60;99.90;;;;;;5133204;28;20438;-59
2024/02/16 00:56:19;;;;;;;1.23;0.70;;;11.60;99.90;;;;;;5133449;28;20416;-58
2024/02/16 00:58:46;;;;;;;3.58;0.88;;;11.60;99.90;;;;;;5132206;28;20497;-57
2024/02/16 01:01:15;;;;;;;1.65;0.80;;;11.60;99.90;;;;;;5129051;28;20454;-58
2024/02/16 01:03:42;;;;;;;2.20;0.70;;;11.60;99.90;;;;;;5122818;28;20855;-60
2024/02/16 01:06:08;;;;;;;1.60;0.80;;;11.50;99.90;;;;;;5127037;28;20430;-58
2024/02/16 01:08:36;;;;;;;2.75;0.80;;;11.60;99.90;;;;;;5128738;28;20430;-62
2024/02/16 01:11:03;;;;;;;1.70;0.90;;;11.60;99.90;;;;;;5132134;28;20414;-63
2024/02/16 01:13:30;;;;;;;1.50;0.80;;;11.60;99.90;;;;;;5126381;28;20418;-63
2024/02/16 01:15:58;;;;;;;2.47;0.80;;;11.50;99.90;;;;;;5129082;28;20428;-63
2024/02/16 01:18:27;;;;;;;1.27;0.80;;;11.50;1.00;;;;;;5126672;27;20503;-63
2024/02/16 01:20:53;;;;;;;1.48;0.80;;;11.50;99.90;;;;;;5135721;27;20518;-62
2024/02/16 01:23:21;;;;;;;1.60;0.80;;;11.50;99.90;;;;;;5131972;27;20418;-62
2024/02/16 01:25:48;;;;;;;1.90;0.80;;;11.50;99.90;;;;;;5132548;27;20420;-63
2024/02/16 01:28:15;;;;;;;1.30;0.80;;;11.60;99.90;;;;;;5129162;27;20541;-63
2024/02/16 01:30:43;;;;;;;2.08;0.70;;;11.50;99.90;;;;;;5119731;27;20432;-62
2024/02/16 01:33:10;;;;;;;1.90;0.80;;;11.50;99.90;;;;;;5133086;27;21198;-63
2024/02/16 01:35:39;;;;;;;1.48;0.70;;;11.50;99.90;;;;;;5134196;27;20473;-63
2024/02/16 01:38:06;;;;;;;1.23;0.70;;;11.60;99.90;;;;;;5132411;27;20760;-61
2024/02/16 01:40:33;;;;;;;2.20;0.70;;;11.50;99.90;;;;;;5132498;27;20481;-62
2024/02/16 01:43:01;;;;;;;1.17;0.70;;;11.60;99.90;;;;;;5131302;27;20443;-63
2024/02/16 01:45:28;;;;;;;1.50;0.70;;;11.60;99.90;;;;;;5133234;27;20450;-62
2024/02/16 01:47:56;;;;;;;1.20;0.80;;;11.60;1.00;;;;;;5133014;27;20432;-62
2024/02/16 01:50:24;;;;;;;1.10;0.70;;;11.60;60.40;;;;;;5128545;27;20447;-62
2024/02/16 01:52:52;;;;;;;0.90;0.63;;;11.50;99.90;;;;;;5134337;27;20499;-62
2024/02/16 01:55:21;;;;;;;1.70;0.60;;;11.50;99.90;;;;;;5125954;27;20451;-62
2024/02/16 01:57:49;;;;;;;1.10;0.70;;;11.50;99.90;;;;;;5132478;27;20486;-62
2024/02/16 02:00:17;;;;;;;1.10;0.70;;;11.60;99.90;;;;;;5130813;27;20688;-62
2024/02/16 02:02:46;;;;;;;2.10;0.80;;;11.50;99.90;;;;;;5136314;27;20430;-62
2024/02/16 02:05:14;;;;;;;0.93;0.60;;;11.50;99.90;;;;;;5132483;27;21094;-62
2024/02/16 02:07:42;;;;;;;1.50;0.70;;;11.40;1.00;;;;;;5128407;27;20454;-63
2024/02/16 02:10:12;;;;;;;1.42;0.70;;;11.40;1.00;;;;;;5122165;27;20529;-62
2024/02/16 02:12:39;;;;;;;1.10;0.70;;;11.30;1.00;;;;;;5132194;27;20498;-62
2024/02/16 02:15:07;;;;;;;1.00;0.65;;;11.30;1.00;;;;;;5136889;27;20841;-62
2024/02/16 02:17:34;;;;;;;1.10;0.73;;;11.30;1.00;;;;;;5127124;27;20419;-63
2024/02/16 02:20:01;;;;;;;1.23;0.60;;;11.20;1.00;;;;;;5128574;27;20861;-63
2024/02/16 02:22:29;;;;;;;0.90;0.60;;;11.20;1.00;;;;;;5130885;27;20518;-62
2024/02/16 02:24:56;;;;;;;1.00;0.60;;;11.20;1.00;;;;;;5131623;27;20444;-63
2024/02/16 02:27:23;;;;;;;2.05;0.80;;;11.20;1.00;;;;;;5130614;27;20455;-63
2024/02/16 02:29:51;;;;;;;1.30;0.80;;;11.20;1.00;;;;;;5132183;27;20473;-63
2024/02/16 02:32:18;;;;;;;1.30;0.80;;;11.20;1.00;;;;;;5130624;27;20424;-63
2024/02/16 02:34:45;;;;;;;1.00;0.70;;;11.30;99.90;;;;;;5133609;27;20420;-63
2024/02/16 02:37:12;;;;;;;1.07;0.70;;;11.30;99.90;;;;;;5136420;27;20481;-63
2024/02/16 02:39:41;;;;;;;1.35;0.80;;;11.40;99.90;;;;;;5130550;27;20737;-63
2024/02/16 02:42:09;;;;;;;2.10;0.90;;;11.40;99.90;;;;;;5131851;27;20495;-61
2024/02/16 02:44:36;;;;;;;1.60;0.90;;;11.50;99.90;;;;;;5134807;27;20866;-61
2024/02/16 02:47:03;;;;;;;2.30;0.90;;;11.40;99.90;;;;;;5130415;27;20450;-61
2024/02/16 02:49:30;;;;;;;1.10;0.70;;;11.40;99.90;;;;;;5132007;27;20463;-62
2024/02/16 02:51:57;;;;;;;1.75;0.90;;;11.40;99.90;;;;;;5133252;27;20426;-63
2024/02/16 02:54:24;;;;;;;1.90;0.80;;;11.30;99.90;;;;;;5129748;27;20459;-63
2024/02/16 02:56:53;;;;;;;2.20;0.85;;;11.40;99.90;;;;;;5127095;27;20459;-62
2024/02/16 02:59:20;;;;;;;1.40;0.70;;;11.30;99.90;;;;;;5129816;27;20676;-62
2024/02/16 03:01:46;;;;;;;1.20;0.73;;;11.30;99.90;;;;;;5133404;27;20482;-63
2024/02/16 03:04:13;;;;;;;1.10;0.70;;;11.40;99.90;;;;;;5137779;27;20453;-63
2024/02/16 03:06:41;;;;;;;1.70;0.80;;;11.40;99.90;;;;;;5129534;27;20764;-62
2024/02/16 03:09:08;;;;;;;1.50;0.70;;;11.40;99.90;;;;;;5131553;27;20426;-62
2024/02/16 03:11:35;;;;;;;2.50;0.70;;;11.40;99.90;;;;;;5131671;27;20458;-62
2024/02/16 03:14:04;;;;;;;2.00;0.75;;;11.40;99.90;;;;;;5129163;27;20481;-63
2024/02/16 03:16:31;;;;;;;1.60;0.80;;;11.30;99.90;;;;;;5126828;27;20436;-63
2024/02/16 03:18:58;;;;;;;1.50;0.90;;;11.40;99.90;;;;;;5132195;27;20462;-62
2024/02/16 03:21:25;;;;;;;2.22;0.90;;;11.40;99.90;;;;;;5130519;27;20448;-62
2024/02/16 03:23:52;;;;;;;1.80;1.00;;;11.40;99.90;;;;;;5132457;27;20456;-62
2024/02/16 03:26:21;;;;;;;3.57;1.00;;;11.30;99.90;;;;;;5131750;27;20505;-61
2024/02/16 03:28:48;;;;;;;3.27;0.90;;;11.40;99.90;;;;;;5132489;27;20428;-61
2024/02/16 03:31:21;;;;;;;1.65;0.93;;;11.40;99.90;;;;;;5129565;27;20427;-62
2024/02/16 03:33:48;;;;;;;2.63;1.00;;;11.40;99.90;;;;;;5130625;27;20427;-62
2024/02/16 03:36:16;;;;;;;2.72;0.90;;;11.30;99.90;;;;;;5131832;27;20430;-62
2024/02/16 03:38:43;;;;;;;1.70;0.90;;;11.30;99.90;;;;;;5134060;27;20424;-63
2024/02/16 03:41:16;;;;;;;2.65;0.90;;;11.30;99.90;;;;;;5119596;27;20460;-61
2024/02/16 03:43:43;;;;;;;1.58;0.90;;;11.30;99.90;;;;;;5124293;27;20439;-61
2024/02/16 03:46:10;;;;;;;1.58;0.90;;;11.30;99.90;;;;;;5134371;27;20426;-64
2024/02/16 03:48:39;;;;;;;1.83;0.85;;;11.20;99.90;;;;;;5128216;27;20473;-63
2024/02/16 03:51:06;;;;;;;1.80;0.80;;;11.30;99.90;;;;;;5117679;27;20459;-64
2024/02/16 03:53:33;;;;;;;1.10;0.73;;;11.20;99.90;;;;;;5120542;27;20430;-63
2024/02/16 03:56:01;;;;;;;1.20;0.80;;;11.10;99.90;;;;;;5122036;27;20520;-64
2024/02/16 03:58:27;;;;;;;1.33;0.90;;;11.00;99.90;;;;;;5128647;27;20481;-64
2024/02/16 04:00:54;;;;;;;3.10;0.90;;;11.00;99.90;;;;;;5128704;27;20450;-63
2024/02/16 04:03:21;;;;;;;1.50;0.80;;;11.00;99.90;;;;;;5131423;27;20462;-63
2024/02/16 04:05:50;;;;;;;1.60;1.00;;;11.10;99.90;;;;;;5131680;27;20423;-63
2024/02/16 04:08:16;;;;;;;1.90;0.90;;;11.00;99.90;;;;;;5131553;27;20869;-63
2024/02/16 04:10:43;;;;;;;1.92;1.00;;;11.10;99.90;;;;;;5131562;27;20435;-63
2024/02/16 04:13:10;;;;;;;1.58;0.90;;;11.10;99.90;;;;;;5130961;27;20491;-63
2024/02/16 04:15:38;;;;;;;2.90;0.98;;;11.00;99.90;;;;;;5136919;27;20464;-63
2024/02/16 04:18:06;;;;;;;2.40;0.90;;;11.10;99.90;;;;;;5131150;27;20895;-64
2024/02/16 04:20:33;;;;;;;1.70;0.90;;;11.10;99.90;;;;;;5130246;27;20410;-63
2024/02/16 04:23:01;;;;;;;2.67;1.00;;;11.10;99.90;;;;;;5128349;27;20420;-63
2024/02/16 04:25:28;;;;;;;2.10;0.90;;;11.10;99.90;;;;;;5123817;27;20504;-63
2024/02/16 04:27:55;;;;;;;1.92;0.88;;;11.20;99.90;;;;;;5126734;27;20470;-63
2024/02/16 04:30:22;;;;;;;2.00;0.70;;;11.20;99.90;;;;;;5130708;27;20450;-63
2024/02/16 04:32:50;;;;;;;1.40;0.80;;;11.30;99.90;;;;;;5128137;27;20437;-63
2024/02/16 04:35:16;;;;;;;1.00;0.70;;;11.30;99.90;;;;;;5127122;27;20739;-62
2024/02/16 04:37:44;;;;;;;1.25;0.88;;;11.40;99.90;;;;;;5137252;27;20461;-63
2024/02/16 04:40:13;;;;;;;1.43;0.90;;;11.40;99.90;;;;;;5137604;27;20472;-63
2024/02/16 04:42:41;;;;;;;1.80;0.80;;;11.50;99.90;;;;;;5137242;27;20506;-63
2024/02/16 04:45:11;;;;;;;1.50;1.00;;;11.50;99.90;;;;;;5136292;27;20826;-63
2024/02/16 04:47:38;;;;;;;2.28;1.00;;;11.50;99.90;;;;;;5129169;27;20505;-63
2024/02/16 04:50:09;;;;;;;2.25;0.90;;;11.40;99.90;;;;;;5135966;28;20434;-63
2024/02/16 04:52:37;;;;;;;1.70;0.80;;;11.40;99.90;;;;;;5136793;27;20441;-63
2024/02/16 04:55:05;;;;;;;1.90;0.80;;;11.30;99.90;;;;;;5136859;28;20462;-63
2024/02/16 04:57:34;;;;;;;1.30;0.60;;;11.40;99.90;;;;;;5134410;28;20426;-63
2024/02/16 05:00:01;;;;;;;2.00;0.65;;;11.40;99.90;;;;;;5133772;28;20472;-64
2024/02/16 05:02:28;;;;;;;0.90;0.60;;;11.40;99.90;;;;;;5137351;28;20411;-64
2024/02/16 05:04:55;;;;;;;1.30;0.50;;;11.40;99.90;;;;;;5136909;28;20753;-64
2024/02/16 05:07:22;;;;;;;1.20;0.50;;;11.50;99.90;;;;;;5137465;28;20418;-63
2024/02/16 05:09:49;;;;;;;1.20;0.60;;;11.50;99.90;;;;;;5137132;28;20526;-63
2024/02/16 05:12:18;;;;;;;2.00;0.70;;;11.60;99.90;;;;;;5136860;28;20478;-64
2024/02/16 05:14:50;;;;;;;0.90;0.60;;;11.60;99.90;;;;;;5136785;28;20430;-64
2024/02/16 05:17:17;;;;;;;1.00;0.60;;;11.60;99.90;;;;;;5136252;28;20715;-61
2024/02/16 05:19:44;;;;;;;1.45;0.70;;;11.60;99.90;;;;;;5128312;28;20450;-62
2024/02/16 05:22:11;;;;;;;1.27;0.60;;;11.60;99.90;;;;;;5137693;28;20422;-63
2024/02/16 05:24:38;;;;;;;1.00;0.60;;;11.60;99.90;;;;;;5135342;28;20707;-62
2024/02/16 05:27:05;;;;;;;1.00;0.60;;;11.60;99.90;;;;;;5135374;28;20483;-64
2024/02/16 05:29:32;;;;;;;0.93;0.60;;;11.60;99.90;;;;;;5135204;28;20487;-64
2024/02/16 05:32:01;;;;;;;1.00;0.70;;;11.60;99.90;;;;;;5135475;28;20450;-64
2024/02/16 05:34:32;;;;;;;1.40;0.70;;;11.50;99.90;;;;;;5125321;28;20487;-64
2024/02/16 05:36:59;;;;;;;1.00;0.60;;;11.60;99.90;;;;;;5133782;28;20452;-62
2024/02/16 05:39:31;;;;;;;1.00;0.60;;;11.50;99.90;;;;;;5135586;28;20531;-63
2024/02/16 05:41:58;;;;;;;0.80;0.60;;;11.50;99.90;;;;;;5136331;28;20774;-63
2024/02/16 05:44:25;;;;;;;1.00;0.60;;;11.50;99.90;;;;;;5126888;28;20749;-63
2024/02/16 05:46:52;;;;;;;1.67;0.60;;;11.50;99.90;;;;;;5129256;28;20546;-62
2024/02/16 05:49:20;;;;;;;1.20;0.70;;;11.50;99.90;;;;;;5135032;28;20434;-63
2024/02/16 05:52:17;;;;;;;0.95;0.50;;;11.50;99.90;;;;;;5135772;28;20894;-63
2024/02/16 05:54:44;;;;;;;2.50;0.60;;;11.50;99.90;;;;;;5133221;28;20434;-63
2024/02/16 05:57:12;;;;;;;1.00;0.60;;;11.50;99.90;;;;;;5136350;28;20458;-63
2024/02/16 05:59:39;;;;;;;1.45;0.60;;;11.40;99.90;;;;;;5128288;28;20434;-63
2024/02/16 06:02:07;;;;;;;1.50;0.70;;;11.40;99.90;;;;;;5128633;28;20710;-62
2024/02/16 06:04:36;;;;;;;2.30;0.60;;;11.40;99.90;;;;;;5135555;27;20426;-63
2024/02/16 06:07:03;;;;;;;1.73;0.60;;;11.40;99.90;;;;;;5138587;27;20434;-64
2024/02/16 06:09:33;;;;;;;2.75;0.70;;;11.40;99.90;;;;;;5139722;27;20441;-64
2024/02/16 06:12:03;;;;;;;1.60;0.60;;;11.40;99.90;;;;;;5136672;27;20716;-62
2024/02/16 06:14:31;;;;;;;0.90;0.60;;;11.30;99.90;;;;;;5131392;27;20649;-64
2024/02/16 06:16:58;;;;;;;2.22;0.60;;;11.30;99.90;;;;;;5139790;27;20646;-64
2024/02/16 06:19:25;;;;;;;2.20;0.70;;;11.30;99.90;;;;;;5138685;27;20427;-64
2024/02/16 06:21:55;;;;;;;1.00;0.60;;;11.40;99.90;;;;;;5139588;27;20720;-64
2024/02/16 06:24:22;;;;;;;2.03;0.70;;;11.40;99.90;;;;;;5140034;27;20483;-63
2024/02/16 06:26:50;;;;;;;2.00;0.60;;;11.40;99.90;;;;;;5139614;27;20465;-64
2024/02/16 06:29:17;;;;;;;1.80;0.60;;;11.40;99.90;;;;;;5134723;27;20437;-63
2024/02/16 06:31:44;;;;;;;1.10;0.60;;;11.40;99.90;;;;;;5158975;27;20417;-62
2024/02/16 06:34:11;;;;;;;1.10;0.60;;;11.40;99.90;;;;;;5124967;27;20427;-62
2024/02/16 06:36:38;;;;;;;1.10;0.60;;;11.40;99.90;;;;;;5138179;27;20896;-62
2024/02/16 06:39:06;;;;;;;1.73;0.60;;;11.50;99.90;;;;;;5146051;27;20426;-62
2024/02/16 06:41:33;;;;;;;1.10;0.60;;;11.40;99.90;;;;;;5129464;27;20467;-62
2024/02/16 06:44:00;;;;;;;1.60;0.70;;;11.50;99.90;;;;;;5128384;27;20475;-63
2024/02/16 06:46:29;;;;;;;1.13;0.65;;;11.50;99.90;;;;;;5132428;27;20437;-63
2024/02/16 06:48:56;;;;;;;1.40;0.70;;;11.50;99.90;;;;;;5138110;27;20422;-63
2024/02/16 06:51:24;;;;;;;3.88;1.00;;;11.60;99.90;;;;;;5123349;27;20434;-63
2024/02/16 06:53:51;;;;;;;1.00;0.70;;;11.50;99.90;;;;;;5133317;27;20410;-64
2024/02/16 06:56:19;;;;;;;3.28;0.90;;;11.50;99.90;;;;;;5138183;27;20438;-63
2024/02/16 06:58:46;;;;;;;1.13;0.70;;;11.30;99.90;;;;;;5133270;27;20810;-62
2024/02/16 07:01:14;;;;;;;1.92;0.80;;;11.20;1.00;;;;;;5134080;27;20418;-63
2024/02/16 07:03:41;;;;;;;1.20;0.80;;;11.20;1.00;;;;;;5128163;27;20463;-63
2024/02/16 07:06:09;;;;;;;1.23;0.80;;;11.10;1.00;;;;;;5116836;28;20432;-63
2024/02/16 07:08:37;;;;;;;2.20;0.80;;;11.10;99.90;;;;;;5108177;28;20530;-63
2024/02/16 07:11:05;;;;;;;2.92;0.80;;;11.10;99.90;;;;;;5117363;28;20821;-63
2024/02/16 07:13:33;;;;;;;2.63;0.80;;;11.00;99.90;;;;;;5127590;27;20490;-63
2024/02/16 07:16:01;;;;;;;1.58;0.90;;;11.10;99.90;;;;;;5136770;27;20422;-63
2024/02/16 07:18:28;;;;;;;1.60;0.70;;;11.10;99.90;;;;;;5137303;27;20419;-64
2024/02/16 07:20:55;;;;;;;2.13;0.90;;;11.10;99.90;;;;;;5138422;27;20418;-64
2024/02/16 07:23:22;;;;;;;1.20;0.70;;;11.20;99.90;;;;;;5137964;27;20823;-63
2024/02/16 07:25:49;;;;;;;1.85;0.80;;;11.30;99.90;;;;;;5138408;27;20738;-61
2024/02/16 07:28:16;;;;;;;2.30;0.80;;;11.20;99.90;;;;;;5138771;27;20433;-62
2024/02/16 07:30:44;;;;;;;1.40;0.80;;;11.20;99.90;;;;;;5137209;27;20530;-61
2024/02/16 07:33:11;;;;;;;1.77;0.90;;;11.20;99.90;;;;;;5133184;27;20878;-62
2024/02/16 07:35:39;;;;;;;2.95;1.00;;;11.20;99.90;;;;;;5137638;27;20811;-61
2024/02/16 07:38:06;;;;;;;1.33;1.00;;;11.20;99.90;;;;;;5136538;27;20411;-61
2024/02/16 07:40:33;;;;;;;2.03;1.00;;;11.20;99.90;;;;;;5138084;27;20550;-61
2024/02/16 07:42:59;;;;;;;3.47;1.00;;;11.20;99.90;;;;;;5137833;27;21055;-61
2024/02/16 07:45:26;;;;;;;3.80;0.90;;;11.20;99.90;;;;;;5137560;27;20418;-61
2024/02/16 07:47:55;;;;;;;1.90;1.00;;;11.20;99.90;;;;;;5136624;27;20454;-61
2024/02/16 07:50:22;;;;;;;1.33;0.82;;;11.20;99.90;;;;;;5136988;27;20530;-61
2024/02/16 07:52:49;;;;;;;1.35;0.90;;;11.30;99.90;;;;;;5136209;27;20457;-61
2024/02/16 07:55:18;;;;;;;1.98;1.00;;;11.20;99.90;;;;;;5135915;27;20804;-61
2024/02/16 07:57:44;;;;;;;3.83;1.20;;;11.20;99.90;;;;;;5136291;27;20479;-61
2024/02/16 08:00:12;;;;;;;3.45;2.15;;;11.20;99.90;;;;;;5137104;27;20758;-61
2024/02/16 08:02:41;;;;;;;10.55;6.47;;;11.20;99.90;;;;;;5133104;27;20809;-60
2024/02/16 08:05:10;;;;;;;3.75;1.20;;;11.30;99.90;;;;;;5132426;27;20521;-61
2024/02/16 08:07:37;;;;;;;3.10;1.30;;;11.30;99.90;;;;;;5136848;27;20422;-61
2024/02/16 08:10:04;;;;;;;3.80;1.10;;;11.50;99.90;;;;;;5135279;27;20517;-60
2024/02/16 08:12:32;;;;;;;2.70;1.10;;;11.60;99.90;;;;;;5136635;27;20757;-61
2024/02/16 08:14:59;;;;;;;2.15;1.10;;;11.60;99.90;;;;;;5137650;27;20522;-61
2024/02/16 08:17:26;;;;;;;2.60;1.10;;;11.50;99.90;;;;;;5128919;27;20502;-60
2024/02/16 08:19:54;;;;;;;2.28;1.10;;;11.50;99.90;;;;;;5136742;27;21050;-60
2024/02/16 08:22:23;;;;;;;2.10;1.00;;;11.50;99.90;;;;;;5137492;27;20423;-61
2024/02/16 08:24:50;;;;;;;3.30;1.03;;;11.50;99.90;;;;;;5137305;27;20426;-61
2024/02/16 08:27:18;;;;;;;2.38;1.10;;;11.60;1.00;;;;;;5135539;27;20449;-61
2024/02/16 08:29:45;;;;;;;2.43;1.00;;;11.70;99.90;;;;;;5131093;27;21007;-61
2024/02/16 08:32:12;;;;;;;1.40;1.00;;;12.00;99.90;;;;;;5129095;27;20402;-60
2024/02/16 08:34:39;;;;;;;1.65;1.00;;;12.20;99.90;;;;;;5115994;27;20448;-61
2024/02/16 08:37:07;;;;;;;1.92;1.00;;;12.40;99.90;;;;;;5113824;28;20492;-61
2024/02/16 08:39:35;;;;;;;1.70;0.95;;;12.60;99.90;;;;;;5113770;28;20873;-60
2024/02/16 08:42:03;;;;;;;1.95;0.90;;;12.70;99.90;;;;;;5114964;28;20474;-60
2024/02/16 08:44:30;;;;;;;1.83;1.00;;;12.70;99.90;;;;;;5134522;27;20414;-61
2024/02/16 08:46:57;;;;;;;1.63;0.80;;;12.90;99.90;;;;;;5136604;28;20463;-60
2024/02/16 08:49:24;;;;;;;1.70;0.80;;;13.00;99.90;;;;;;5136391;27;20744;-60
2024/02/16 08:51:50;;;;;;;3.17;0.90;;;13.10;99.90;;;;;;5137773;28;20414;-60
2024/02/16 08:54:18;;;;;;;1.40;0.90;;;13.10;99.90;;;;;;5136443;28;20488;-60
2024/02/16 08:56:48;;;;;;;2.58;0.90;;;13.10;99.90;;;;;;5136373;28;20702;-60
2024/02/16 08:59:15;;;;;;;1.83;0.80;;;13.10;99.90;;;;;;5136372;28;20426;-60
2024/02/16 09:01:43;;;;;;;2.00;0.70;;;13.20;99.90;;;;;;5133800;28;20434;-60
2024/02/16 09:04:11;;;;;;;1.40;0.80;;;13.40;99.90;;;;;;5130523;28;20433;-60
2024/02/16 09:06:38;;;;;;;1.55;0.90;;;13.50;99.90;;;;;;5136407;28;20446;-61
2024/02/16 09:09:06;;;;;;;1.20;0.90;;;13.60;99.90;;;;;;5116874;28;20503;-60
2024/02/16 09:11:33;;;;;;;2.33;0.90;;;13.70;99.90;;;;;;5114914;28;20424;-62
2024/02/16 09:14:01;;;;;;;3.00;0.90;;;13.80;99.90;;;;;;5127935;28;20474;-62
2024/02/16 09:16:28;;;;;;;2.30;1.00;;;13.90;99.90;;;;;;5136232;28;20434;-63
2024/02/16 09:18:55;;;;;;;2.50;0.90;;;14.10;99.90;;;;;;5136496;28;20910;-63
2024/02/16 09:21:24;;;;;;;3.10;1.00;;;14.20;99.90;;;;;;5136005;28;20998;-63
2024/02/16 09:23:51;;;;;;;2.20;0.90;;;14.30;99.90;;;;;;5136164;28;20419;-62
2024/02/16 09:26:18;;;;;;;1.50;1.00;;;14.40;99.90;;;;;;5136473;28;20434;-66
2024/02/16 09:28:45;;;;;;;2.90;1.00;;;14.50;99.90;;;;;;5136772;28;20411;-64
2024/02/16 09:31:16;;;;;;;1.38;0.90;;;14.50;99.90;;;;;;5134688;28;20436;-65
2024/02/16 09:33:43;;;;;;;1.60;0.85;;;14.50;99.90;;;;;;5134811;28;20422;-64
2024/02/16 09:36:10;;;;;;;2.40;1.10;;;14.60;99.90;;;;;;5133576;28;20513;-64
2024/02/16 09:38:37;;;;;;;2.10;0.82;;;14.50;99.90;;;;;;5135652;27;20478;-61
2024/02/16 09:41:06;;;;;;;2.10;1.00;;;14.60;99.90;;;;;;5137007;27;20509;-63
2024/02/16 09:43:33;;;;;;;2.70;0.97;;;14.60;99.90;;;;;;5137635;27;20505;-62
2024/02/16 09:46:00;;;;;;;2.55;1.00;;;14.70;99.90;;;;;;5138252;27;20752;-62
2024/02/16 09:48:29;;;;;;;1.60;0.90;;;14.80;99.90;;;;;;5137648;27;20513;-62
2024/02/16 09:50:58;;;;;;;2.35;0.90;;;14.90;99.90;;;;;;5138106;27;20465;-62
2024/02/16 09:53:27;;;;;;;1.90;0.85;;;15.10;99.90;;;;;;5137510;27;20450;-62
2024/02/16 09:55:54;;;;;;;2.20;0.90;;;15.20;99.90;;;;;;5138664;27;20413;-62
2024/02/16 09:58:21;;;;;;;1.40;0.90;;;15.40;99.90;;;;;;5140146;27;20458;-62
2024/02/16 10:00:52;;;;;;;1.70;0.80;;;15.50;99.90;;;;;;5140069;27;20414;-62
2024/02/16 10:03:24;;;;;;;1.20;0.85;;;15.60;99.90;;;;;;5132938;27;20424;-62
2024/02/16 10:05:53;;;;;;;1.43;0.80;;;15.60;99.90;;;;;;5139217;27;20418;-62
2024/02/16 10:08:20;;;;;;;3.67;0.90;;;15.60;99.90;;;;;;5138104;27;20530;-63
2024/02/16 10:10:49;;;;;;;1.50;0.90;;;15.80;99.90;;;;;;5138913;27;20541;-63
2024/02/16 10:13:17;;;;;;;1.90;0.90;;;15.90;99.90;;;;;;5139654;27;20518;-63
2024/02/16 10:15:44;;;;;;;1.00;0.70;;;16.00;99.90;;;;;;5139468;27;20526;-62
2024/02/16 10:18:11;;;;;;;2.50;0.70;;;15.90;99.90;;;;;;5139084;27;20426;-62
2024/02/16 10:20:39;;;;;;;1.90;0.80;;;16.00;99.90;;;;;;5138309;27;20431;-63
2024/02/16 10:23:09;;;;;;;1.50;0.70;;;16.10;99.90;;;;;;5138729;27;20407;-63
2024/02/16 10:25:38;;;;;;;1.20;0.70;;;16.20;99.90;;;;;;5138792;27;20418;-62
2024/02/16 10:28:07;;;;;;;1.30;0.60;;;16.40;99.90;;;;;;5138330;27;20684;-63
2024/02/16 10:30:38;;;;;;;0.80;0.40;;;16.40;99.90;;;;;;5136443;27;20574;-63
2024/02/16 10:33:05;;;;;;;3.30;0.50;;;16.60;99.90;;;;;;5133206;27;20416;-62
2024/02/16 10:35:35;;;;;;;0.70;0.30;;;16.70;99.90;;;;;;5136139;27;20430;-63
2024/02/16 10:38:04;;;;;;;0.77;0.40;;;16.80;99.90;;;;;;5138758;27;20461;-63
2024/02/16 10:40:34;;;;;;;0.70;0.40;;;16.80;99.90;;;;;;5138997;27;20835;-63
2024/02/16 10:43:05;;;;;;;0.70;0.40;;;16.90;99.90;;;;;;5131882;27;20442;-63
2024/02/16 10:45:35;;;;;;;0.82;0.40;;;16.80;99.90;;;;;;5137119;27;20553;-62
2024/02/16 10:48:03;;;;;;;2.17;0.40;;;16.80;99.90;;;;;;5137687;27;20526;-62
2024/02/16 10:50:30;;;;;;;1.15;0.40;;;16.90;99.90;;;;;;5137906;27;20527;-63
2024/02/16 10:53:00;;;;;;;0.60;0.40;;;16.90;99.90;;;;;;5137249;27;20765;-63
2024/02/16 10:55:27;;;;;;;1.20;0.50;;;16.90;99.90;;;;;;5138108;27;20430;-63
2024/02/16 10:57:58;;;;;;;8.15;4.18;;;17.00;99.90;;;;;;5139429;27;20848;-64
2024/02/16 11:00:26;;;;;;;2.13;0.50;;;17.00;99.90;;;;;;5138785;27;20471;-64
2024/02/16 11:02:55;;;;;;;1.57;0.40;;;17.00;99.90;;;;;;5138916;27;20418;-62
2024/02/16 11:05:34;;;;;;;0.93;0.40;;;17.10;99.90;;;;;;5138283;27;20415;-61
2024/02/16 11:08:04;;;;;;;1.20;0.40;;;17.00;99.90;;;;;;5138013;27;20406;-63
2024/02/16 11:10:32;;;;;;;0.70;0.40;;;17.00;99.90;;;;;;5138422;27;20542;-65
2024/02/16 11:13:04;;;;;;;0.90;0.50;;;17.00;99.90;;;;;;5133079;27;20484;-63
2024/02/16 11:15:32;;;;;;;0.60;0.30;;;17.10;99.90;;;;;;5135901;27;20441;-63
2024/02/16 11:18:01;;;;;;;1.00;0.40;;;17.10;99.90;;;;;;5138285;27;20479;-64
2024/02/16 11:20:28;;;;;;;1.10;0.40;;;17.20;99.90;;;;;;5136768;27;20407;-62
2024/02/16 11:23:06;;;;;;;0.90;0.40;;;17.20;99.90;;;;;;5137566;27;20425;-62
2024/02/16 11:25:34;;;;;;;1.70;0.40;;;17.30;99.90;;;;;;5136899;27;20520;-63
2024/02/16 11:28:02;;;;;;;1.75;0.43;;;17.40;99.90;;;;;;5138058;27;20477;-63
2024/02/16 11:30:33;;;;;;;0.77;0.40;;;17.40;99.90;;;;;;5135744;27;21137;-63
2024/02/16 11:32:59;;;;;;;0.80;0.40;;;17.40;99.90;;;;;;5120240;27;20466;-63
2024/02/16 11:35:26;;;;;;;1.30;0.50;;;17.30;99.90;;;;;;5137227;27;20411;-62
2024/02/16 11:37:56;;;;;;;1.20;0.50;;;17.30;99.90;;;;;;5136678;27;20505;-62
2024/02/16 11:40:23;;;;;;;0.55;0.30;;;17.20;99.90;;;;;;5138060;27;20419;-62
2024/02/16 11:42:50;;;;;;;2.00;0.40;;;17.30;99.90;;;;;;5138117;27;20450;-61
2024/02/16 11:45:18;;;;;;;1.00;0.40;;;17.30;99.90;;;;;;5130549;27;20418;-61
2024/02/16 11:47:45;;;;;;;0.60;0.40;;;17.40;99.90;;;;;;5138175;27;20858;-61
2024/02/16 11:50:12;;;;;;;1.37;0.40;;;17.40;99.90;;;;;;5127539;27;20539;-62
2024/02/16 11:52:40;;;;;;;0.70;0.40;;;17.50;99.90;;;;;;5135144;27;20418;-62
2024/02/16 11:55:10;;;;;;;2.00;0.30;;;17.50;99.90;;;;;;5136761;27;20453;-62
2024/02/16 11:57:37;;;;;;;1.48;0.40;;;17.60;99.90;;;;;;5135675;27;20426;-62
2024/02/16 12:00:10;;;;;;;0.90;0.50;;;17.90;99.90;;;;;;5136991;27;20742;-62
2024/02/16 12:02:38;;;;;;;0.63;0.40;;;18.20;99.90;;;;;;5134428;27;20741;-62
2024/02/16 12:05:07;;;;;;;0.80;0.40;;;18.50;99.90;;;;;;5130927;27;20513;-62
2024/02/16 12:07:34;;;;;;;1.00;0.40;;;18.60;99.90;;;;;;5135955;27;20422;-62
2024/02/16 12:10:04;;;;;;;1.10;0.40;;;18.70;99.90;;;;;;5137185;27;20529;-63
2024/02/16 12:12:32;;;;;;;0.90;0.40;;;18.80;99.90;;;;;;5136009;27;20422;-62
2024/02/16 12:14:59;;;;;;;0.70;0.40;;;18.80;99.90;;;;;;5136361;27;20422;-62
2024/02/16 12:17:25;;;;;;;0.82;0.50;;;18.80;99.90;;;;;;5131193;27;20469;-60
2024/02/16 12:19:54;;;;;;;0.87;0.30;;;18.70;99.90;;;;;;5116749;28;20427;-61
2024/02/16 12:22:21;;;;;;;0.63;0.40;;;18.60;99.90;;;;;;5116630;28;20452;-62
2024/02/16 12:24:50;;;;;;;2.10;0.50;;;18.50;99.90;;;;;;5115935;28;20420;-61
2024/02/16 12:27:17;;;;;;;0.60;0.30;;;18.50;99.90;;;;;;5115364;28;20761;-61
2024/02/16 12:29:45;;;;;;;1.58;0.40;;;18.40;99.90;;;;;;5115675;28;20458;-61
2024/02/16 12:32:12;;;;;;;1.20;0.40;;;18.50;99.90;;;;;;5116054;28;20697;-61
2024/02/16 12:34:39;;;;;;;1.40;0.30;;;18.40;99.90;;;;;;5115609;28;20504;-62
2024/02/16 12:37:08;;;;;;;0.90;0.40;;;18.30;99.90;;;;;;5113932;28;20999;-62
2024/02/16 12:39:35;;;;;;;1.48;0.40;;;18.20;99.90;;;;;;5114075;28;20436;-64
2024/02/16 12:42:02;;;;;;;0.90;0.40;;;18.20;99.90;;;;;;5114576;28;20544;-62
2024/02/16 12:44:30;;;;;;;1.00;0.40;;;18.30;99.90;;;;;;5132058;27;20410;-62
2024/02/16 12:46:57;;;;;;;0.80;0.50;;;18.40;99.90;;;;;;5135579;27;20815;-62
2024/02/16 12:49:24;;;;;;;0.90;0.40;;;18.50;99.90;;;;;;5136862;27;20911;-63
2024/02/16 12:51:51;;;;;;;0.70;0.43;;;18.30;99.90;;;;;;5135799;27;20466;-63